sensor_id;sensor_type;location;lat;lon;timestamp;P1;durP1;ratioP1;P2;durP2;ratioP2
80576;SDS011;69937;52.420;10.538;2023-09-08T00:02:11;5.88;;;3.67;;
80576;SDS011;69937;52.420;10.538;2023-09-08T00:07:12;5.70;;;3.78;;
80576;SDS011;69937;52.420;10.538;2023-09-08T00:12:13;8.18;;;3.40;;
80576;SDS011;69937;52.420;10.538;2023-09-08T00:17:13;6.03;;;3.95;;
80576;SDS011;69937;52.420;10.538;2023-09-08T00:22:14;8.18;;;4.60;;
80576;SDS011;69937;52.420;10.538;2023-09-08T00:27:15;8.57;;;3.92;;
80576;SDS011;69937;52.420;10.538;2023-09-08T00:32:15;7.15;;;4.60;;
80576;SDS011;69937;52.420;10.538;2023-09-08T00:37:16;6.72;;;4.47;;
80576;SDS011;69937;52.420;10.538;2023-09-08T00:42:16;7.28;;;3.45;;
80576;SDS011;69937;52.420;10.538;2023-09-08T00:47:17;9.48;;;4.00;;
80576;SDS011;69937;52.420;10.538;2023-09-08T00:52:18;6.38;;;3.85;;
80576;SDS011;69937;52.420;10.538;2023-09-08T00:57:19;9.18;;;4.15;;
80576;SDS011;69937;52.420;10.538;2023-09-08T01:02:20;5.60;;;4.32;;
80576;SDS011;69937;52.420;10.538;2023-09-08T01:07:21;6.38;;;4.10;;
80576;SDS011;69937;52.420;10.538;2023-09-08T01:12:21;10.73;;;4.25;;
80576;SDS011;69937;52.420;10.538;2023-09-08T01:17:22;13.80;;;3.80;;
80576;SDS011;69937;52.420;10.538;2023-09-08T01:27:41;5.70;;;3.67;;
80576;SDS011;69937;52.420;10.538;2023-09-08T01:32:50;6.25;;;3.90;;
80576;SDS011;69937;52.420;10.538;2023-09-08T01:37:52;6.75;;;3.72;;
80576;SDS011;69937;52.420;10.538;2023-09-08T01:42:52;7.28;;;3.78;;
80576;SDS011;69937;52.420;10.538;2023-09-08T01:47:53;7.60;;;4.38;;
80576;SDS011;69937;52.420;10.538;2023-09-08T01:52:54;7.10;;;4.32;;
80576;SDS011;69937;52.420;10.538;2023-09-08T01:57:54;6.82;;;4.35;;
80576;SDS011;69937;52.420;10.538;2023-09-08T02:02:55;9.88;;;4.25;;
80576;SDS011;69937;52.420;10.538;2023-09-08T02:07:55;9.82;;;4.70;;
80576;SDS011;69937;52.420;10.538;2023-09-08T02:12:57;7.95;;;5.05;;
80576;SDS011;69937;52.420;10.538;2023-09-08T02:17:57;6.85;;;4.13;;
80576;SDS011;69937;52.420;10.538;2023-09-08T02:22:58;9.27;;;4.38;;
80576;SDS011;69937;52.420;10.538;2023-09-08T02:28:04;9.45;;;4.05;;
80576;SDS011;69937;52.420;10.538;2023-09-08T02:33:05;9.48;;;4.82;;
80576;SDS011;69937;52.420;10.538;2023-09-08T02:38:06;10.80;;;4.07;;
80576;SDS011;69937;52.420;10.538;2023-09-08T02:43:06;5.95;;;4.15;;
80576;SDS011;69937;52.420;10.538;2023-09-08T02:48:07;7.50;;;4.53;;
80576;SDS011;69937;52.420;10.538;2023-09-08T02:53:07;8.00;;;4.20;;
80576;SDS011;69937;52.420;10.538;2023-09-08T02:58:08;8.13;;;4.57;;
80576;SDS011;69937;52.420;10.538;2023-09-08T03:03:08;6.82;;;4.32;;
80576;SDS011;69937;52.420;10.538;2023-09-08T03:08:09;6.57;;;4.75;;
80576;SDS011;69937;52.420;10.538;2023-09-08T03:13:10;5.75;;;4.20;;
80576;SDS011;69937;52.420;10.538;2023-09-08T03:18:10;7.90;;;4.38;;
80576;SDS011;69937;52.420;10.538;2023-09-08T03:23:11;7.78;;;5.03;;
80576;SDS011;69937;52.420;10.538;2023-09-08T03:28:11;6.22;;;4.13;;
80576;SDS011;69937;52.420;10.538;2023-09-08T03:33:15;10.18;;;4.90;;
80576;SDS011;69937;52.420;10.538;2023-09-08T03:38:15;12.52;;;5.07;;
80576;SDS011;69937;52.420;10.538;2023-09-08T03:43:16;9.82;;;5.03;;
80576;SDS011;69937;52.420;10.538;2023-09-08T03:48:16;8.00;;;4.93;;
80576;SDS011;69937;52.420;10.538;2023-09-08T03:53:17;7.22;;;4.93;;
80576;SDS011;69937;52.420;10.538;2023-09-08T03:58:17;9.00;;;4.68;;
80576;SDS011;69937;52.420;10.538;2023-09-08T04:03:18;5.38;;;4.22;;
80576;SDS011;69937;52.420;10.538;2023-09-08T04:08:18;11.82;;;4.90;;
80576;SDS011;69937;52.420;10.538;2023-09-08T04:13:19;8.85;;;4.50;;
80576;SDS011;69937;52.420;10.538;2023-09-08T04:18:19;9.05;;;4.68;;
80576;SDS011;69937;52.420;10.538;2023-09-08T04:23:20;8.57;;;4.68;;
80576;SDS011;69937;52.420;10.538;2023-09-08T04:28:20;6.55;;;4.50;;
80576;SDS011;69937;52.420;10.538;2023-09-08T04:33:22;7.82;;;5.28;;
80576;SDS011;69937;52.420;10.538;2023-09-08T04:38:23;6.78;;;4.13;;
80576;SDS011;69937;52.420;10.538;2023-09-08T04:43:24;7.15;;;4.75;;
80576;SDS011;69937;52.420;10.538;2023-09-08T04:48:24;9.70;;;5.07;;
80576;SDS011;69937;52.420;10.538;2023-09-08T04:53:25;6.90;;;4.93;;
80576;SDS011;69937;52.420;10.538;2023-09-08T04:58:25;7.85;;;5.10;;
80576;SDS011;69937;52.420;10.538;2023-09-08T05:03:26;8.82;;;4.50;;
80576;SDS011;69937;52.420;10.538;2023-09-08T05:08:26;6.40;;;4.28;;
80576;SDS011;69937;52.420;10.538;2023-09-08T05:13:27;8.88;;;5.35;;
80576;SDS011;69937;52.420;10.538;2023-09-08T05:18:28;7.07;;;4.85;;
80576;SDS011;69937;52.420;10.538;2023-09-08T05:23:29;7.53;;;5.03;;
80576;SDS011;69937;52.420;10.538;2023-09-08T05:28:29;6.63;;;4.53;;
80576;SDS011;69937;52.420;10.538;2023-09-08T05:33:30;11.80;;;5.72;;
80576;SDS011;69937;52.420;10.538;2023-09-08T05:38:30;9.20;;;5.53;;
80576;SDS011;69937;52.420;10.538;2023-09-08T05:43:31;11.93;;;5.28;;
80576;SDS011;69937;52.420;10.538;2023-09-08T05:48:31;9.32;;;5.15;;
80576;SDS011;69937;52.420;10.538;2023-09-08T05:53:32;8.15;;;4.50;;
80576;SDS011;69937;52.420;10.538;2023-09-08T05:58:33;8.48;;;5.65;;
80576;SDS011;69937;52.420;10.538;2023-09-08T06:03:34;12.68;;;5.25;;
80576;SDS011;69937;52.420;10.538;2023-09-08T06:08:34;10.02;;;4.85;;
80576;SDS011;69937;52.420;10.538;2023-09-08T06:13:35;16.75;;;5.75;;
80576;SDS011;69937;52.420;10.538;2023-09-08T06:18:35;9.55;;;5.80;;
80576;SDS011;69937;52.420;10.538;2023-09-08T06:23:40;9.32;;;5.28;;
80576;SDS011;69937;52.420;10.538;2023-09-08T06:28:40;10.23;;;5.55;;
80576;SDS011;69937;52.420;10.538;2023-09-08T06:33:43;8.60;;;5.47;;
80576;SDS011;69937;52.420;10.538;2023-09-08T06:38:43;9.25;;;5.38;;
80576;SDS011;69937;52.420;10.538;2023-09-08T06:43:44;9.43;;;5.88;;
80576;SDS011;69937;52.420;10.538;2023-09-08T06:48:44;13.82;;;5.35;;
80576;SDS011;69937;52.420;10.538;2023-09-08T06:53:48;12.52;;;6.03;;
80576;SDS011;69937;52.420;10.538;2023-09-08T06:58:55;11.30;;;5.30;;
80576;SDS011;69937;52.420;10.538;2023-09-08T07:03:57;6.97;;;5.00;;
80576;SDS011;69937;52.420;10.538;2023-09-08T07:08:58;10.23;;;5.13;;
80576;SDS011;69937;52.420;10.538;2023-09-08T07:13:59;8.55;;;4.90;;
80576;SDS011;69937;52.420;10.538;2023-09-08T07:18:59;9.80;;;5.25;;
80576;SDS011;69937;52.420;10.538;2023-09-08T07:24:01;8.57;;;5.20;;
80576;SDS011;69937;52.420;10.538;2023-09-08T07:29:01;9.15;;;5.07;;
80576;SDS011;69937;52.420;10.538;2023-09-08T07:34:02;12.20;;;5.07;;
80576;SDS011;69937;52.420;10.538;2023-09-08T07:39:03;8.00;;;4.40;;
80576;SDS011;69937;52.420;10.538;2023-09-08T07:44:03;9.60;;;4.25;;
80576;SDS011;69937;52.420;10.538;2023-09-08T07:49:04;9.63;;;4.20;;
80576;SDS011;69937;52.420;10.538;2023-09-08T07:54:05;7.28;;;4.32;;
80576;SDS011;69937;52.420;10.538;2023-09-08T07:59:06;10.90;;;4.13;;
80576;SDS011;69937;52.420;10.538;2023-09-08T08:04:07;9.98;;;4.03;;
80576;SDS011;69937;52.420;10.538;2023-09-08T08:09:08;8.10;;;3.53;;
80576;SDS011;69937;52.420;10.538;2023-09-08T08:14:08;9.95;;;3.90;;
80576;SDS011;69937;52.420;10.538;2023-09-08T08:19:09;7.65;;;4.00;;
80576;SDS011;69937;52.420;10.538;2023-09-08T08:24:09;7.65;;;3.88;;
80576;SDS011;69937;52.420;10.538;2023-09-08T08:29:10;7.65;;;3.58;;
80576;SDS011;69937;52.420;10.538;2023-09-08T08:34:10;8.85;;;4.22;;
80576;SDS011;69937;52.420;10.538;2023-09-08T08:39:11;7.68;;;3.47;;
80576;SDS011;69937;52.420;10.538;2023-09-08T08:44:11;7.38;;;3.45;;
80576;SDS011;69937;52.420;10.538;2023-09-08T08:54:16;8.05;;;3.28;;
80576;SDS011;69937;52.420;10.538;2023-09-08T08:59:16;5.20;;;3.28;;
80576;SDS011;69937;52.420;10.538;2023-09-08T09:04:18;7.28;;;3.10;;
80576;SDS011;69937;52.420;10.538;2023-09-08T09:09:19;6.70;;;3.28;;
80576;SDS011;69937;52.420;10.538;2023-09-08T09:14:20;6.47;;;2.75;;
80576;SDS011;69937;52.420;10.538;2023-09-08T09:19:23;6.38;;;2.58;;
80576;SDS011;69937;52.420;10.538;2023-09-08T09:24:35;5.85;;;2.95;;
80576;SDS011;69937;52.420;10.538;2023-09-08T09:29:47;6.25;;;2.50;;
80576;SDS011;69937;52.420;10.538;2023-09-08T09:34:49;5.05;;;2.53;;
80576;SDS011;69937;52.420;10.538;2023-09-08T09:39:54;6.40;;;2.58;;
80576;SDS011;69937;52.420;10.538;2023-09-08T09:44:55;3.83;;;2.17;;
80576;SDS011;69937;52.420;10.538;2023-09-08T09:49:55;3.88;;;2.50;;
80576;SDS011;69937;52.420;10.538;2023-09-08T09:54:58;6.35;;;2.50;;
80576;SDS011;69937;52.420;10.538;2023-09-08T09:59:59;6.43;;;2.67;;
80576;SDS011;69937;52.420;10.538;2023-09-08T10:05:11;7.45;;;2.47;;
80576;SDS011;69937;52.420;10.538;2023-09-08T10:10:13;5.43;;;2.60;;
80576;SDS011;69937;52.420;10.538;2023-09-08T10:15:13;3.45;;;2.03;;
80576;SDS011;69937;52.420;10.538;2023-09-08T10:20:19;4.55;;;2.40;;
80576;SDS011;69937;52.420;10.538;2023-09-08T10:30:24;6.18;;;2.70;;
80576;SDS011;69937;52.420;10.538;2023-09-08T10:35:25;5.95;;;2.47;;
80576;SDS011;69937;52.420;10.538;2023-09-08T10:40:26;4.32;;;2.40;;
80576;SDS011;69937;52.420;10.538;2023-09-08T10:45:29;3.10;;;2.15;;
80576;SDS011;69937;52.420;10.538;2023-09-08T10:50:34;5.35;;;2.65;;
80576;SDS011;69937;52.420;10.538;2023-09-08T11:00:50;5.85;;;2.58;;
80576;SDS011;69937;52.420;10.538;2023-09-08T11:05:54;5.28;;;1.98;;
80576;SDS011;69937;52.420;10.538;2023-09-08T11:10:56;6.10;;;2.33;;
80576;SDS011;69937;52.420;10.538;2023-09-08T11:15:57;4.35;;;2.28;;
80576;SDS011;69937;52.420;10.538;2023-09-08T11:20:58;4.65;;;2.05;;
80576;SDS011;69937;52.420;10.538;2023-09-08T11:25:59;4.85;;;2.20;;
80576;SDS011;69937;52.420;10.538;2023-09-08T11:31:00;4.25;;;2.13;;
80576;SDS011;69937;52.420;10.538;2023-09-08T11:36:10;3.40;;;2.00;;
80576;SDS011;69937;52.420;10.538;2023-09-08T11:41:13;4.00;;;2.30;;
80576;SDS011;69937;52.420;10.538;2023-09-08T11:46:13;6.93;;;2.20;;
80576;SDS011;69937;52.420;10.538;2023-09-08T11:51:15;6.10;;;2.17;;
80576;SDS011;69937;52.420;10.538;2023-09-08T11:56:15;2.88;;;1.77;;
80576;SDS011;69937;52.420;10.538;2023-09-08T12:01:16;5.20;;;2.45;;
80576;SDS011;69937;52.420;10.538;2023-09-08T12:06:17;3.67;;;2.00;;
80576;SDS011;69937;52.420;10.538;2023-09-08T12:11:18;6.53;;;1.95;;
80576;SDS011;69937;52.420;10.538;2023-09-08T12:16:19;4.72;;;2.15;;
80576;SDS011;69937;52.420;10.538;2023-09-08T12:21:22;5.22;;;1.98;;
80576;SDS011;69937;52.420;10.538;2023-09-08T12:26:24;4.38;;;2.03;;
80576;SDS011;69937;52.420;10.538;2023-09-08T12:31:25;2.50;;;1.92;;
80576;SDS011;69937;52.420;10.538;2023-09-08T12:36:26;4.28;;;2.03;;
80576;SDS011;69937;52.420;10.538;2023-09-08T12:41:26;8.52;;;1.70;;
80576;SDS011;69937;52.420;10.538;2023-09-08T12:46:27;3.45;;;1.80;;
80576;SDS011;69937;52.420;10.538;2023-09-08T12:51:30;3.33;;;1.60;;
80576;SDS011;69937;52.420;10.538;2023-09-08T12:56:30;5.30;;;2.38;;
80576;SDS011;69937;52.420;10.538;2023-09-08T13:01:31;3.67;;;2.22;;
80576;SDS011;69937;52.420;10.538;2023-09-08T13:06:31;3.65;;;2.00;;
80576;SDS011;69937;52.420;10.538;2023-09-08T13:11:34;6.40;;;2.17;;
80576;SDS011;69937;52.420;10.538;2023-09-08T13:16:35;3.65;;;1.83;;
80576;SDS011;69937;52.420;10.538;2023-09-08T13:21:35;5.85;;;1.88;;
80576;SDS011;69937;52.420;10.538;2023-09-08T13:26:36;2.50;;;1.77;;
80576;SDS011;69937;52.420;10.538;2023-09-08T13:31:36;5.78;;;2.20;;
80576;SDS011;69937;52.420;10.538;2023-09-08T13:36:37;5.32;;;1.83;;
80576;SDS011;69937;52.420;10.538;2023-09-08T13:41:47;5.47;;;2.25;;
80576;SDS011;69937;52.420;10.538;2023-09-08T13:46:53;3.28;;;1.65;;
80576;SDS011;69937;52.420;10.538;2023-09-08T13:51:54;4.38;;;1.70;;
80576;SDS011;69937;52.420;10.538;2023-09-08T13:56:58;5.78;;;2.08;;
80576;SDS011;69937;52.420;10.538;2023-09-08T14:02:03;9.75;;;2.00;;
80576;SDS011;69937;52.420;10.538;2023-09-08T14:07:03;3.83;;;1.95;;
80576;SDS011;69937;52.420;10.538;2023-09-08T14:12:04;7.25;;;2.20;;
80576;SDS011;69937;52.420;10.538;2023-09-08T14:17:05;4.82;;;2.00;;
80576;SDS011;69937;52.420;10.538;2023-09-08T14:22:05;5.30;;;1.30;;
80576;SDS011;69937;52.420;10.538;2023-09-08T14:27:06;6.25;;;1.60;;
80576;SDS011;69937;52.420;10.538;2023-09-08T14:32:06;5.43;;;1.80;;
80576;SDS011;69937;52.420;10.538;2023-09-08T14:37:07;4.60;;;2.10;;
80576;SDS011;69937;52.420;10.538;2023-09-08T14:42:08;7.90;;;2.40;;
80576;SDS011;69937;52.420;10.538;2023-09-08T14:47:09;4.82;;;1.90;;
80576;SDS011;69937;52.420;10.538;2023-09-08T14:52:10;4.03;;;2.20;;
80576;SDS011;69937;52.420;10.538;2023-09-08T14:57:10;5.63;;;2.00;;
80576;SDS011;69937;52.420;10.538;2023-09-08T15:02:11;5.53;;;1.90;;
80576;SDS011;69937;52.420;10.538;2023-09-08T15:07:11;2.85;;;1.90;;
80576;SDS011;69937;52.420;10.538;2023-09-08T15:12:12;5.10;;;1.77;;
80576;SDS011;69937;52.420;10.538;2023-09-08T15:17:13;3.13;;;1.95;;
80576;SDS011;69937;52.420;10.538;2023-09-08T15:22:13;6.95;;;1.90;;
80576;SDS011;69937;52.420;10.538;2023-09-08T15:27:14;4.55;;;2.42;;
80576;SDS011;69937;52.420;10.538;2023-09-08T15:32:14;9.25;;;2.55;;
80576;SDS011;69937;52.420;10.538;2023-09-08T15:37:15;5.47;;;2.03;;
80576;SDS011;69937;52.420;10.538;2023-09-08T15:42:15;4.22;;;2.17;;
80576;SDS011;69937;52.420;10.538;2023-09-08T15:47:16;4.15;;;2.13;;
80576;SDS011;69937;52.420;10.538;2023-09-08T15:52:18;5.65;;;2.10;;
80576;SDS011;69937;52.420;10.538;2023-09-08T15:57:19;3.53;;;2.03;;
80576;SDS011;69937;52.420;10.538;2023-09-08T16:02:20;4.72;;;2.05;;
80576;SDS011;69937;52.420;10.538;2023-09-08T16:07:20;3.53;;;1.98;;
80576;SDS011;69937;52.420;10.538;2023-09-08T16:12:22;6.35;;;2.20;;
80576;SDS011;69937;52.420;10.538;2023-09-08T16:17:22;4.18;;;2.00;;
80576;SDS011;69937;52.420;10.538;2023-09-08T16:22:23;6.25;;;2.13;;
80576;SDS011;69937;52.420;10.538;2023-09-08T16:27:24;6.35;;;2.10;;
80576;SDS011;69937;52.420;10.538;2023-09-08T16:32:24;5.68;;;2.00;;
80576;SDS011;69937;52.420;10.538;2023-09-08T16:37:25;4.97;;;2.20;;
80576;SDS011;69937;52.420;10.538;2023-09-08T16:42:25;4.43;;;1.83;;
80576;SDS011;69937;52.420;10.538;2023-09-08T16:47:26;9.88;;;2.70;;
80576;SDS011;69937;52.420;10.538;2023-09-08T16:52:26;12.80;;;3.20;;
80576;SDS011;69937;52.420;10.538;2023-09-08T16:57:27;9.02;;;2.95;;
80576;SDS011;69937;52.420;10.538;2023-09-08T17:02:27;9.55;;;3.17;;
80576;SDS011;69937;52.420;10.538;2023-09-08T17:07:29;10.73;;;2.90;;
80576;SDS011;69937;52.420;10.538;2023-09-08T17:12:29;15.60;;;3.22;;
80576;SDS011;69937;52.420;10.538;2023-09-08T17:17:31;6.40;;;2.95;;
80576;SDS011;69937;52.420;10.538;2023-09-08T17:22:31;12.93;;;2.95;;
80576;SDS011;69937;52.420;10.538;2023-09-08T17:27:32;6.72;;;2.90;;
80576;SDS011;69937;52.420;10.538;2023-09-08T17:32:32;10.55;;;3.53;;
80576;SDS011;69937;52.420;10.538;2023-09-08T17:37:33;11.70;;;3.80;;
80576;SDS011;69937;52.420;10.538;2023-09-08T17:42:34;11.82;;;3.40;;
80576;SDS011;69937;52.420;10.538;2023-09-08T17:47:34;9.65;;;3.50;;
80576;SDS011;69937;52.420;10.538;2023-09-08T17:52:35;5.72;;;2.75;;
80576;SDS011;69937;52.420;10.538;2023-09-08T17:57:35;8.70;;;3.08;;
80576;SDS011;69937;52.420;10.538;2023-09-08T18:02:36;10.68;;;2.92;;
80576;SDS011;69937;52.420;10.538;2023-09-08T18:07:36;3.35;;;2.25;;
80576;SDS011;69937;52.420;10.538;2023-09-08T18:12:37;11.82;;;3.45;;
80576;SDS011;69937;52.420;10.538;2023-09-08T18:17:37;6.50;;;2.75;;
80576;SDS011;69937;52.420;10.538;2023-09-08T18:22:38;16.08;;;3.83;;
80576;SDS011;69937;52.420;10.538;2023-09-08T18:27:39;9.07;;;2.55;;
80576;SDS011;69937;52.420;10.538;2023-09-08T18:32:40;17.45;;;3.35;;
80576;SDS011;69937;52.420;10.538;2023-09-08T18:37:43;6.45;;;2.60;;
80576;SDS011;69937;52.420;10.538;2023-09-08T18:42:43;6.22;;;3.05;;
80576;SDS011;69937;52.420;10.538;2023-09-08T18:47:44;9.23;;;2.88;;
80576;SDS011;69937;52.420;10.538;2023-09-08T18:52:45;4.15;;;2.72;;
80576;SDS011;69937;52.420;10.538;2023-09-08T18:57:46;7.13;;;2.95;;
80576;SDS011;69937;52.420;10.538;2023-09-08T19:02:47;3.60;;;2.42;;
80576;SDS011;69937;52.420;10.538;2023-09-08T19:07:48;11.63;;;3.33;;
80576;SDS011;69937;52.420;10.538;2023-09-08T19:12:48;4.75;;;2.88;;
80576;SDS011;69937;52.420;10.538;2023-09-08T19:17:50;13.95;;;3.00;;
80576;SDS011;69937;52.420;10.538;2023-09-08T19:22:51;10.80;;;2.72;;
80576;SDS011;69937;52.420;10.538;2023-09-08T19:27:52;6.55;;;2.90;;
80576;SDS011;69937;52.420;10.538;2023-09-08T19:32:52;5.18;;;3.15;;
80576;SDS011;69937;52.420;10.538;2023-09-08T19:37:53;5.80;;;2.90;;
80576;SDS011;69937;52.420;10.538;2023-09-08T19:42:54;8.73;;;3.20;;
80576;SDS011;69937;52.420;10.538;2023-09-08T19:47:55;9.85;;;3.35;;
80576;SDS011;69937;52.420;10.538;2023-09-08T19:52:55;5.75;;;2.75;;
80576;SDS011;69937;52.420;10.538;2023-09-08T19:57:56;6.30;;;3.17;;
80576;SDS011;69937;52.420;10.538;2023-09-08T20:02:57;8.98;;;3.35;;
80576;SDS011;69937;52.420;10.538;2023-09-08T20:07:58;5.78;;;3.10;;
80576;SDS011;69937;52.420;10.538;2023-09-08T20:12:59;8.68;;;2.85;;
80576;SDS011;69937;52.420;10.538;2023-09-08T20:18:01;12.10;;;3.75;;
80576;SDS011;69937;52.420;10.538;2023-09-08T20:23:02;7.63;;;3.13;;
80576;SDS011;69937;52.420;10.538;2023-09-08T20:28:04;7.15;;;2.95;;
80576;SDS011;69937;52.420;10.538;2023-09-08T20:33:06;7.40;;;3.53;;
80576;SDS011;69937;52.420;10.538;2023-09-08T20:38:06;6.78;;;3.47;;
80576;SDS011;69937;52.420;10.538;2023-09-08T20:43:08;9.77;;;3.50;;
80576;SDS011;69937;52.420;10.538;2023-09-08T20:48:09;6.55;;;3.92;;
80576;SDS011;69937;52.420;10.538;2023-09-08T20:53:10;7.38;;;3.35;;
80576;SDS011;69937;52.420;10.538;2023-09-08T20:58:10;7.53;;;3.33;;
80576;SDS011;69937;52.420;10.538;2023-09-08T21:03:11;6.97;;;3.67;;
80576;SDS011;69937;52.420;10.538;2023-09-08T21:08:11;5.68;;;3.53;;
80576;SDS011;69937;52.420;10.538;2023-09-08T21:13:12;4.57;;;3.20;;
80576;SDS011;69937;52.420;10.538;2023-09-08T21:18:13;9.93;;;3.83;;
80576;SDS011;69937;52.420;10.538;2023-09-08T21:23:13;6.03;;;3.70;;
80576;SDS011;69937;52.420;10.538;2023-09-08T21:28:14;5.00;;;3.58;;
80576;SDS011;69937;52.420;10.538;2023-09-08T21:33:15;10.43;;;3.97;;
80576;SDS011;69937;52.420;10.538;2023-09-08T21:38:16;4.90;;;3.33;;
80576;SDS011;69937;52.420;10.538;2023-09-08T21:43:16;8.20;;;3.42;;
80576;SDS011;69937;52.420;10.538;2023-09-08T21:48:17;7.55;;;3.58;;
80576;SDS011;69937;52.420;10.538;2023-09-08T21:53:18;6.45;;;3.70;;
80576;SDS011;69937;52.420;10.538;2023-09-08T21:58:18;13.65;;;3.65;;
80576;SDS011;69937;52.420;10.538;2023-09-08T22:03:19;7.88;;;3.58;;
80576;SDS011;69937;52.420;10.538;2023-09-08T22:08:20;12.98;;;4.00;;
80576;SDS011;69937;52.420;10.538;2023-09-08T22:13:20;6.45;;;3.30;;
80576;SDS011;69937;52.420;10.538;2023-09-08T22:18:20;4.88;;;3.30;;
80576;SDS011;69937;52.420;10.538;2023-09-08T22:23:21;9.18;;;3.83;;
80576;SDS011;69937;52.420;10.538;2023-09-08T22:28:21;7.78;;;4.50;;
80576;SDS011;69937;52.420;10.538;2023-09-08T22:33:22;5.50;;;3.63;;
80576;SDS011;69937;52.420;10.538;2023-09-08T22:38:24;7.32;;;3.67;;
80576;SDS011;69937;52.420;10.538;2023-09-08T22:43:25;6.50;;;3.60;;
80576;SDS011;69937;52.420;10.538;2023-09-08T22:48:26;7.75;;;4.63;;
80576;SDS011;69937;52.420;10.538;2023-09-08T22:53:27;7.63;;;3.63;;
80576;SDS011;69937;52.420;10.538;2023-09-08T22:58:40;17.77;;;4.07;;
80576;SDS011;69937;52.420;10.538;2023-09-08T23:03:40;8.85;;;3.80;;
80576;SDS011;69937;52.420;10.538;2023-09-08T23:08:41;8.23;;;4.28;;
80576;SDS011;69937;52.420;10.538;2023-09-08T23:13:42;7.10;;;3.83;;
80576;SDS011;69937;52.420;10.538;2023-09-08T23:18:42;6.22;;;3.97;;
80576;SDS011;69937;52.420;10.538;2023-09-08T23:23:43;8.55;;;4.57;;
80576;SDS011;69937;52.420;10.538;2023-09-08T23:28:43;6.65;;;3.72;;
80576;SDS011;69937;52.420;10.538;2023-09-08T23:33:44;7.43;;;4.50;;
80576;SDS011;69937;52.420;10.538;2023-09-08T23:38:46;5.60;;;3.58;;
80576;SDS011;69937;52.420;10.538;2023-09-08T23:43:46;8.70;;;3.75;;
80576;SDS011;69937;52.420;10.538;2023-09-08T23:48:47;6.30;;;3.83;;
80576;SDS011;69937;52.420;10.538;2023-09-08T23:53:47;5.80;;;3.72;;
80576;SDS011;69937;52.420;10.538;2023-09-08T23:58:48;7.68;;;3.90;;
